sensor_id;sensor_type;location;lat;lon;timestamp;P1;durP1;ratioP1;P2;durP2;ratioP2
3022;SDS011;1521;53.584;9.938;2023-11-19T00:02:11;16.80;;;9.80;;
3022;SDS011;1521;53.584;9.938;2023-11-19T00:04:37;14.23;;;9.97;;
3022;SDS011;1521;53.584;9.938;2023-11-19T00:07:06;17.30;;;11.10;;
3022;SDS011;1521;53.584;9.938;2023-11-19T00:09:35;18.90;;;9.73;;
3022;SDS011;1521;53.584;9.938;2023-11-19T00:12:02;14.90;;;9.13;;
3022;SDS011;1521;53.584;9.938;2023-11-19T00:14:29;12.83;;;9.03;;
3022;SDS011;1521;53.584;9.938;2023-11-19T00:16:55;12.17;;;8.43;;
3022;SDS011;1521;53.584;9.938;2023-11-19T00:19:21;14.83;;;9.17;;
3022;SDS011;1521;53.584;9.938;2023-11-19T00:21:46;16.50;;;10.20;;
3022;SDS011;1521;53.584;9.938;2023-11-19T00:24:12;13.87;;;9.53;;
3022;SDS011;1521;53.584;9.938;2023-11-19T00:26:38;12.50;;;8.47;;
3022;SDS011;1521;53.584;9.938;2023-11-19T00:29:03;10.53;;;7.80;;
3022;SDS011;1521;53.584;9.938;2023-11-19T00:31:29;11.10;;;8.53;;
3022;SDS011;1521;53.584;9.938;2023-11-19T00:33:55;10.47;;;7.80;;
3022;SDS011;1521;53.584;9.938;2023-11-19T00:36:20;9.70;;;7.57;;
3022;SDS011;1521;53.584;9.938;2023-11-19T00:38:48;13.27;;;8.20;;
3022;SDS011;1521;53.584;9.938;2023-11-19T00:41:15;12.43;;;8.50;;
3022;SDS011;1521;53.584;9.938;2023-11-19T00:43:41;10.70;;;7.90;;
3022;SDS011;1521;53.584;9.938;2023-11-19T00:46:08;12.17;;;8.53;;
3022;SDS011;1521;53.584;9.938;2023-11-19T00:48:35;11.03;;;7.60;;
3022;SDS011;1521;53.584;9.938;2023-11-19T00:51:01;10.43;;;7.20;;
3022;SDS011;1521;53.584;9.938;2023-11-19T00:53:27;8.80;;;7.03;;
3022;SDS011;1521;53.584;9.938;2023-11-19T00:55:53;7.27;;;6.40;;
3022;SDS011;1521;53.584;9.938;2023-11-19T00:58:18;8.93;;;7.37;;
3022;SDS011;1521;53.584;9.938;2023-11-19T01:00:44;10.00;;;6.93;;
3022;SDS011;1521;53.584;9.938;2023-11-19T01:03:10;12.47;;;6.97;;
3022;SDS011;1521;53.584;9.938;2023-11-19T01:05:36;7.50;;;5.90;;
3022;SDS011;1521;53.584;9.938;2023-11-19T01:08:02;7.83;;;5.53;;
3022;SDS011;1521;53.584;9.938;2023-11-19T01:10:29;7.07;;;5.10;;
3022;SDS011;1521;53.584;9.938;2023-11-19T01:12:55;5.60;;;5.00;;
3022;SDS011;1521;53.584;9.938;2023-11-19T01:15:20;8.17;;;5.63;;
3022;SDS011;1521;53.584;9.938;2023-11-19T01:17:46;6.40;;;5.33;;
3022;SDS011;1521;53.584;9.938;2023-11-19T01:20:12;6.30;;;4.80;;
3022;SDS011;1521;53.584;9.938;2023-11-19T01:22:38;6.20;;;4.53;;
3022;SDS011;1521;53.584;9.938;2023-11-19T01:25:05;5.90;;;3.90;;
3022;SDS011;1521;53.584;9.938;2023-11-19T01:27:32;4.70;;;3.57;;
3022;SDS011;1521;53.584;9.938;2023-11-19T01:29:59;5.33;;;4.40;;
3022;SDS011;1521;53.584;9.938;2023-11-19T01:32:28;4.33;;;3.93;;
3022;SDS011;1521;53.584;9.938;2023-11-19T01:34:54;4.70;;;4.20;;
3022;SDS011;1521;53.584;9.938;2023-11-19T01:37:19;4.87;;;4.07;;
3022;SDS011;1521;53.584;9.938;2023-11-19T01:39:45;8.07;;;4.90;;
3022;SDS011;1521;53.584;9.938;2023-11-19T01:42:11;6.57;;;4.23;;
3022;SDS011;1521;53.584;9.938;2023-11-19T01:44:37;5.60;;;4.93;;
3022;SDS011;1521;53.584;9.938;2023-11-19T01:47:03;5.03;;;4.30;;
3022;SDS011;1521;53.584;9.938;2023-11-19T01:49:30;4.70;;;4.10;;
3022;SDS011;1521;53.584;9.938;2023-11-19T01:51:57;7.37;;;4.07;;
3022;SDS011;1521;53.584;9.938;2023-11-19T01:54:23;4.40;;;3.57;;
3022;SDS011;1521;53.584;9.938;2023-11-19T01:56:49;4.67;;;3.50;;
3022;SDS011;1521;53.584;9.938;2023-11-19T01:59:14;4.77;;;3.30;;
3022;SDS011;1521;53.584;9.938;2023-11-19T02:01:41;3.70;;;3.30;;
3022;SDS011;1521;53.584;9.938;2023-11-19T02:04:07;3.90;;;2.80;;
3022;SDS011;1521;53.584;9.938;2023-11-19T02:06:34;2.97;;;2.70;;
3022;SDS011;1521;53.584;9.938;2023-11-19T02:09:02;2.90;;;2.60;;
3022;SDS011;1521;53.584;9.938;2023-11-19T02:11:32;2.90;;;2.57;;
3022;SDS011;1521;53.584;9.938;2023-11-19T02:13:59;3.90;;;2.70;;
3022;SDS011;1521;53.584;9.938;2023-11-19T02:16:25;2.67;;;2.43;;
3022;SDS011;1521;53.584;9.938;2023-11-19T02:18:51;2.80;;;2.47;;
3022;SDS011;1521;53.584;9.938;2023-11-19T02:21:16;2.83;;;2.30;;
3022;SDS011;1521;53.584;9.938;2023-11-19T02:23:43;2.77;;;2.57;;
3022;SDS011;1521;53.584;9.938;2023-11-19T02:26:19;2.80;;;2.57;;
3022;SDS011;1521;53.584;9.938;2023-11-19T02:28:53;2.50;;;2.30;;
3022;SDS011;1521;53.584;9.938;2023-11-19T02:31:19;2.33;;;2.17;;
3022;SDS011;1521;53.584;9.938;2023-11-19T02:33:45;2.43;;;2.23;;
3022;SDS011;1521;53.584;9.938;2023-11-19T02:36:10;2.73;;;2.53;;
3022;SDS011;1521;53.584;9.938;2023-11-19T02:38:36;3.60;;;2.77;;
3022;SDS011;1521;53.584;9.938;2023-11-19T02:41:06;3.03;;;2.20;;
3022;SDS011;1521;53.584;9.938;2023-11-19T02:43:32;2.70;;;2.50;;
3022;SDS011;1521;53.584;9.938;2023-11-19T02:45:59;3.73;;;3.00;;
3022;SDS011;1521;53.584;9.938;2023-11-19T02:48:31;3.30;;;3.00;;
3022;SDS011;1521;53.584;9.938;2023-11-19T02:50:57;3.77;;;2.90;;
3022;SDS011;1521;53.584;9.938;2023-11-19T02:53:23;3.40;;;3.10;;
3022;SDS011;1521;53.584;9.938;2023-11-19T02:55:49;3.10;;;2.80;;
3022;SDS011;1521;53.584;9.938;2023-11-19T02:58:15;3.87;;;3.27;;
3022;SDS011;1521;53.584;9.938;2023-11-19T03:00:49;4.20;;;3.80;;
3022;SDS011;1521;53.584;9.938;2023-11-19T03:03:23;3.50;;;3.20;;
3022;SDS011;1521;53.584;9.938;2023-11-19T03:05:53;3.40;;;3.10;;
3022;SDS011;1521;53.584;9.938;2023-11-19T03:08:20;6.17;;;3.20;;
3022;SDS011;1521;53.584;9.938;2023-11-19T03:10:45;4.33;;;3.60;;
3022;SDS011;1521;53.584;9.938;2023-11-19T03:13:11;4.00;;;3.60;;
3022;SDS011;1521;53.584;9.938;2023-11-19T03:15:38;3.70;;;3.40;;
3022;SDS011;1521;53.584;9.938;2023-11-19T03:18:05;3.93;;;3.60;;
3022;SDS011;1521;53.584;9.938;2023-11-19T03:20:30;3.53;;;3.23;;
3022;SDS011;1521;53.584;9.938;2023-11-19T03:22:56;11.03;;;3.50;;
3022;SDS011;1521;53.584;9.938;2023-11-19T03:25:24;4.20;;;3.80;;
3022;SDS011;1521;53.584;9.938;2023-11-19T03:27:52;6.23;;;4.23;;
3022;SDS011;1521;53.584;9.938;2023-11-19T03:30:18;4.80;;;4.37;;
3022;SDS011;1521;53.584;9.938;2023-11-19T03:32:45;5.63;;;4.50;;
3022;SDS011;1521;53.584;9.938;2023-11-19T03:35:11;6.40;;;4.80;;
3022;SDS011;1521;53.584;9.938;2023-11-19T03:37:37;5.37;;;4.30;;
3022;SDS011;1521;53.584;9.938;2023-11-19T03:40:03;5.20;;;4.70;;
3022;SDS011;1521;53.584;9.938;2023-11-19T03:42:29;4.63;;;4.23;;
3022;SDS011;1521;53.584;9.938;2023-11-19T03:44:55;5.13;;;4.63;;
3022;SDS011;1521;53.584;9.938;2023-11-19T03:47:21;4.67;;;4.27;;
3022;SDS011;1521;53.584;9.938;2023-11-19T03:49:50;5.00;;;4.53;;
3022;SDS011;1521;53.584;9.938;2023-11-19T03:52:17;5.13;;;4.63;;
3022;SDS011;1521;53.584;9.938;2023-11-19T03:54:43;6.20;;;4.60;;
3022;SDS011;1521;53.584;9.938;2023-11-19T03:57:10;5.77;;;5.10;;
3022;SDS011;1521;53.584;9.938;2023-11-19T03:59:37;8.60;;;5.77;;
3022;SDS011;1521;53.584;9.938;2023-11-19T04:02:02;5.80;;;5.30;;
3022;SDS011;1521;53.584;9.938;2023-11-19T04:04:28;6.00;;;5.40;;
3022;SDS011;1521;53.584;9.938;2023-11-19T04:06:57;8.40;;;6.27;;
3022;SDS011;1521;53.584;9.938;2023-11-19T04:09:23;6.40;;;5.80;;
3022;SDS011;1521;53.584;9.938;2023-11-19T04:11:48;7.97;;;6.50;;
3022;SDS011;1521;53.584;9.938;2023-11-19T04:14:14;6.80;;;6.10;;
3022;SDS011;1521;53.584;9.938;2023-11-19T04:16:40;10.80;;;5.97;;
3022;SDS011;1521;53.584;9.938;2023-11-19T04:19:06;7.70;;;6.30;;
3022;SDS011;1521;53.584;9.938;2023-11-19T04:21:31;7.00;;;6.00;;
3022;SDS011;1521;53.584;9.938;2023-11-19T04:23:57;10.17;;;6.87;;
3022;SDS011;1521;53.584;9.938;2023-11-19T04:26:23;9.10;;;7.30;;
3022;SDS011;1521;53.584;9.938;2023-11-19T04:28:49;8.23;;;6.87;;
3022;SDS011;1521;53.584;9.938;2023-11-19T04:31:17;9.80;;;7.37;;
3022;SDS011;1521;53.584;9.938;2023-11-19T04:33:43;11.13;;;7.83;;
3022;SDS011;1521;53.584;9.938;2023-11-19T04:36:09;9.60;;;7.07;;
3022;SDS011;1521;53.584;9.938;2023-11-19T04:38:35;14.83;;;8.70;;
3022;SDS011;1521;53.584;9.938;2023-11-19T04:41:02;14.53;;;8.77;;
3022;SDS011;1521;53.584;9.938;2023-11-19T04:43:30;11.67;;;8.80;;
3022;SDS011;1521;53.584;9.938;2023-11-19T04:45:56;11.13;;;9.00;;
3022;SDS011;1521;53.584;9.938;2023-11-19T04:48:22;12.73;;;8.30;;
3022;SDS011;1521;53.584;9.938;2023-11-19T04:50:48;15.30;;;9.23;;
3022;SDS011;1521;53.584;9.938;2023-11-19T04:53:13;13.77;;;9.27;;
3022;SDS011;1521;53.584;9.938;2023-11-19T04:55:40;13.47;;;9.63;;
3022;SDS011;1521;53.584;9.938;2023-11-19T04:58:06;17.00;;;10.90;;
3022;SDS011;1521;53.584;9.938;2023-11-19T05:00:32;16.83;;;11.03;;
3022;SDS011;1521;53.584;9.938;2023-11-19T05:02:57;21.50;;;11.40;;
3022;SDS011;1521;53.584;9.938;2023-11-19T05:05:23;19.10;;;12.47;;
3022;SDS011;1521;53.584;9.938;2023-11-19T05:07:49;25.13;;;12.00;;
3022;SDS011;1521;53.584;9.938;2023-11-19T05:10:14;26.47;;;14.03;;
3022;SDS011;1521;53.584;9.938;2023-11-19T05:12:40;24.10;;;14.23;;
3022;SDS011;1521;53.584;9.938;2023-11-19T05:15:06;20.60;;;12.60;;
3022;SDS011;1521;53.584;9.938;2023-11-19T05:17:32;23.37;;;13.47;;
3022;SDS011;1521;53.584;9.938;2023-11-19T05:19:58;32.10;;;15.27;;
3022;SDS011;1521;53.584;9.938;2023-11-19T05:22:23;27.77;;;14.87;;
3022;SDS011;1521;53.584;9.938;2023-11-19T05:24:49;33.27;;;18.40;;
3022;SDS011;1521;53.584;9.938;2023-11-19T05:27:15;31.40;;;16.53;;
3022;SDS011;1521;53.584;9.938;2023-11-19T05:29:40;39.07;;;18.50;;
3022;SDS011;1521;53.584;9.938;2023-11-19T05:32:06;37.90;;;18.20;;
3022;SDS011;1521;53.584;9.938;2023-11-19T05:34:32;41.90;;;20.27;;
3022;SDS011;1521;53.584;9.938;2023-11-19T05:36:57;57.33;;;20.90;;
3022;SDS011;1521;53.584;9.938;2023-11-19T05:39:23;51.43;;;21.97;;
3022;SDS011;1521;53.584;9.938;2023-11-19T05:41:51;51.53;;;24.00;;
3022;SDS011;1521;53.584;9.938;2023-11-19T05:44:17;50.53;;;24.20;;
3022;SDS011;1521;53.584;9.938;2023-11-19T05:46:43;59.10;;;24.73;;
3022;SDS011;1521;53.584;9.938;2023-11-19T05:49:09;47.50;;;23.57;;
3022;SDS011;1521;53.584;9.938;2023-11-19T05:51:36;54.53;;;23.87;;
3022;SDS011;1521;53.584;9.938;2023-11-19T05:54:03;50.13;;;24.77;;
3022;SDS011;1521;53.584;9.938;2023-11-19T05:56:32;61.20;;;24.57;;
3022;SDS011;1521;53.584;9.938;2023-11-19T05:58:58;43.37;;;22.43;;
3022;SDS011;1521;53.584;9.938;2023-11-19T06:01:32;48.63;;;23.80;;
3022;SDS011;1521;53.584;9.938;2023-11-19T06:03:59;52.40;;;23.60;;
3022;SDS011;1521;53.584;9.938;2023-11-19T06:06:26;50.20;;;22.40;;
3022;SDS011;1521;53.584;9.938;2023-11-19T06:08:52;43.03;;;21.87;;
3022;SDS011;1521;53.584;9.938;2023-11-19T06:11:17;47.57;;;22.60;;
3022;SDS011;1521;53.584;9.938;2023-11-19T06:13:45;45.90;;;23.77;;
3022;SDS011;1521;53.584;9.938;2023-11-19T06:16:11;57.20;;;22.87;;
3022;SDS011;1521;53.584;9.938;2023-11-19T06:18:37;43.60;;;21.70;;
3022;SDS011;1521;53.584;9.938;2023-11-19T06:21:02;61.23;;;23.43;;
3022;SDS011;1521;53.584;9.938;2023-11-19T06:23:28;61.20;;;23.50;;
3022;SDS011;1521;53.584;9.938;2023-11-19T06:25:54;52.03;;;23.13;;
3022;SDS011;1521;53.584;9.938;2023-11-19T06:28:19;53.20;;;22.70;;
3022;SDS011;1521;53.584;9.938;2023-11-19T06:30:45;51.70;;;21.27;;
3022;SDS011;1521;53.584;9.938;2023-11-19T06:33:13;42.30;;;19.50;;
3022;SDS011;1521;53.584;9.938;2023-11-19T06:35:39;45.67;;;18.13;;
3022;SDS011;1521;53.584;9.938;2023-11-19T06:38:05;45.27;;;18.80;;
3022;SDS011;1521;53.584;9.938;2023-11-19T06:40:34;50.97;;;19.03;;
3022;SDS011;1521;53.584;9.938;2023-11-19T06:43:00;62.13;;;19.57;;
3022;SDS011;1521;53.584;9.938;2023-11-19T06:45:27;53.57;;;16.80;;
3022;SDS011;1521;53.584;9.938;2023-11-19T06:47:53;45.60;;;16.80;;
3022;SDS011;1521;53.584;9.938;2023-11-19T06:50:19;52.77;;;18.67;;
3022;SDS011;1521;53.584;9.938;2023-11-19T06:52:44;50.37;;;16.33;;
3022;SDS011;1521;53.584;9.938;2023-11-19T06:55:10;50.57;;;16.10;;
3022;SDS011;1521;53.584;9.938;2023-11-19T06:57:36;52.27;;;16.27;;
3022;SDS011;1521;53.584;9.938;2023-11-19T07:00:02;48.50;;;16.37;;
3022;SDS011;1521;53.584;9.938;2023-11-19T07:02:30;46.07;;;14.63;;
3022;SDS011;1521;53.584;9.938;2023-11-19T07:04:56;56.50;;;15.57;;
3022;SDS011;1521;53.584;9.938;2023-11-19T07:07:21;40.30;;;13.97;;
3022;SDS011;1521;53.584;9.938;2023-11-19T07:09:47;40.70;;;13.87;;
3022;SDS011;1521;53.584;9.938;2023-11-19T07:12:13;37.87;;;12.60;;
3022;SDS011;1521;53.584;9.938;2023-11-19T07:14:39;39.23;;;12.10;;
3022;SDS011;1521;53.584;9.938;2023-11-19T07:17:05;36.07;;;10.83;;
3022;SDS011;1521;53.584;9.938;2023-11-19T07:19:31;40.07;;;10.53;;
3022;SDS011;1521;53.584;9.938;2023-11-19T07:21:56;38.87;;;10.27;;
3022;SDS011;1521;53.584;9.938;2023-11-19T07:24:22;29.03;;;10.40;;
3022;SDS011;1521;53.584;9.938;2023-11-19T07:26:48;26.70;;;9.50;;
3022;SDS011;1521;53.584;9.938;2023-11-19T07:29:14;34.10;;;9.83;;
3022;SDS011;1521;53.584;9.938;2023-11-19T07:31:42;38.50;;;9.30;;
3022;SDS011;1521;53.584;9.938;2023-11-19T07:34:11;39.60;;;8.53;;
3022;SDS011;1521;53.584;9.938;2023-11-19T07:36:37;38.90;;;7.67;;
3022;SDS011;1521;53.584;9.938;2023-11-19T07:39:03;32.77;;;6.53;;
3022;SDS011;1521;53.584;9.938;2023-11-19T07:41:30;32.60;;;6.87;;
3022;SDS011;1521;53.584;9.938;2023-11-19T07:43:56;35.03;;;7.90;;
3022;SDS011;1521;53.584;9.938;2023-11-19T07:46:21;30.87;;;6.67;;
3022;SDS011;1521;53.584;9.938;2023-11-19T07:48:47;41.00;;;7.77;;
3022;SDS011;1521;53.584;9.938;2023-11-19T07:51:13;36.63;;;7.10;;
3022;SDS011;1521;53.584;9.938;2023-11-19T07:53:39;34.53;;;8.53;;
3022;SDS011;1521;53.584;9.938;2023-11-19T07:56:06;49.43;;;7.83;;
3022;SDS011;1521;53.584;9.938;2023-11-19T07:58:32;33.00;;;7.27;;
3022;SDS011;1521;53.584;9.938;2023-11-19T08:00:58;35.77;;;7.10;;
3022;SDS011;1521;53.584;9.938;2023-11-19T08:03:23;36.53;;;7.10;;
3022;SDS011;1521;53.584;9.938;2023-11-19T08:05:49;47.17;;;8.50;;
3022;SDS011;1521;53.584;9.938;2023-11-19T08:08:15;30.03;;;6.23;;
3022;SDS011;1521;53.584;9.938;2023-11-19T08:10:40;32.13;;;6.50;;
3022;SDS011;1521;53.584;9.938;2023-11-19T08:13:06;36.13;;;7.10;;
3022;SDS011;1521;53.584;9.938;2023-11-19T08:15:32;46.57;;;7.20;;
3022;SDS011;1521;53.584;9.938;2023-11-19T08:17:58;50.03;;;7.80;;
3022;SDS011;1521;53.584;9.938;2023-11-19T08:20:23;38.57;;;6.60;;
3022;SDS011;1521;53.584;9.938;2023-11-19T08:22:49;27.40;;;6.00;;
3022;SDS011;1521;53.584;9.938;2023-11-19T08:25:15;40.23;;;9.00;;
3022;SDS011;1521;53.584;9.938;2023-11-19T08:27:40;42.33;;;6.63;;
3022;SDS011;1521;53.584;9.938;2023-11-19T08:30:06;36.73;;;6.97;;
3022;SDS011;1521;53.584;9.938;2023-11-19T08:32:32;36.13;;;6.93;;
3022;SDS011;1521;53.584;9.938;2023-11-19T08:34:58;29.53;;;5.47;;
3022;SDS011;1521;53.584;9.938;2023-11-19T08:37:23;37.17;;;6.90;;
3022;SDS011;1521;53.584;9.938;2023-11-19T08:39:49;28.50;;;6.30;;
3022;SDS011;1521;53.584;9.938;2023-11-19T08:42:16;38.77;;;5.93;;
3022;SDS011;1521;53.584;9.938;2023-11-19T08:44:42;35.20;;;5.70;;
3022;SDS011;1521;53.584;9.938;2023-11-19T08:47:09;30.70;;;5.90;;
3022;SDS011;1521;53.584;9.938;2023-11-19T08:49:36;31.70;;;6.27;;
3022;SDS011;1521;53.584;9.938;2023-11-19T08:52:01;38.73;;;6.60;;
3022;SDS011;1521;53.584;9.938;2023-11-19T08:54:27;37.87;;;6.63;;
3022;SDS011;1521;53.584;9.938;2023-11-19T08:56:52;39.83;;;6.67;;
3022;SDS011;1521;53.584;9.938;2023-11-19T08:59:18;37.73;;;8.10;;
3022;SDS011;1521;53.584;9.938;2023-11-19T09:01:44;36.13;;;7.50;;
3022;SDS011;1521;53.584;9.938;2023-11-19T09:04:09;30.73;;;6.30;;
3022;SDS011;1521;53.584;9.938;2023-11-19T09:06:35;44.63;;;6.80;;
3022;SDS011;1521;53.584;9.938;2023-11-19T09:09:01;41.23;;;6.70;;
3022;SDS011;1521;53.584;9.938;2023-11-19T09:11:28;33.90;;;6.40;;
3022;SDS011;1521;53.584;9.938;2023-11-19T09:13:54;31.57;;;6.03;;
3022;SDS011;1521;53.584;9.938;2023-11-19T09:16:19;34.77;;;6.80;;
3022;SDS011;1521;53.584;9.938;2023-11-19T09:18:45;37.47;;;6.77;;
3022;SDS011;1521;53.584;9.938;2023-11-19T09:21:11;43.70;;;6.33;;
3022;SDS011;1521;53.584;9.938;2023-11-19T09:23:37;38.27;;;6.47;;
3022;SDS011;1521;53.584;9.938;2023-11-19T09:26:04;28.33;;;5.90;;
3022;SDS011;1521;53.584;9.938;2023-11-19T09:28:30;49.47;;;7.90;;
3022;SDS011;1521;53.584;9.938;2023-11-19T09:30:56;26.10;;;6.40;;
3022;SDS011;1521;53.584;9.938;2023-11-19T09:33:22;36.50;;;6.23;;
3022;SDS011;1521;53.584;9.938;2023-11-19T09:35:48;30.50;;;6.03;;
3022;SDS011;1521;53.584;9.938;2023-11-19T09:38:14;32.90;;;7.97;;
3022;SDS011;1521;53.584;9.938;2023-11-19T09:40:40;37.83;;;5.87;;
3022;SDS011;1521;53.584;9.938;2023-11-19T09:43:06;39.47;;;6.40;;
3022;SDS011;1521;53.584;9.938;2023-11-19T09:45:33;32.73;;;6.70;;
3022;SDS011;1521;53.584;9.938;2023-11-19T09:48:23;33.57;;;6.07;;
3022;SDS011;1521;53.584;9.938;2023-11-19T09:50:50;40.90;;;7.20;;
3022;SDS011;1521;53.584;9.938;2023-11-19T09:53:16;33.67;;;5.83;;
3022;SDS011;1521;53.584;9.938;2023-11-19T09:55:42;45.03;;;7.13;;
3022;SDS011;1521;53.584;9.938;2023-11-19T09:58:08;33.40;;;6.40;;
3022;SDS011;1521;53.584;9.938;2023-11-19T10:00:37;43.23;;;7.63;;
3022;SDS011;1521;53.584;9.938;2023-11-19T10:03:02;44.73;;;8.53;;
3022;SDS011;1521;53.584;9.938;2023-11-19T10:05:30;34.87;;;6.10;;
3022;SDS011;1521;53.584;9.938;2023-11-19T10:07:56;39.60;;;6.03;;
3022;SDS011;1521;53.584;9.938;2023-11-19T10:10:22;38.97;;;5.90;;
3022;SDS011;1521;53.584;9.938;2023-11-19T10:12:50;37.77;;;5.90;;
3022;SDS011;1521;53.584;9.938;2023-11-19T10:15:25;33.27;;;6.60;;
3022;SDS011;1521;53.584;9.938;2023-11-19T10:17:52;31.40;;;6.30;;
3022;SDS011;1521;53.584;9.938;2023-11-19T10:20:21;41.17;;;6.30;;
3022;SDS011;1521;53.584;9.938;2023-11-19T10:22:47;41.43;;;7.00;;
3022;SDS011;1521;53.584;9.938;2023-11-19T10:25:25;45.93;;;7.50;;
3022;SDS011;1521;53.584;9.938;2023-11-19T10:27:52;38.63;;;6.10;;
3022;SDS011;1521;53.584;9.938;2023-11-19T10:30:25;50.70;;;7.20;;
3022;SDS011;1521;53.584;9.938;2023-11-19T10:35:41;42.23;;;8.37;;
3022;SDS011;1521;53.584;9.938;2023-11-19T10:38:19;38.60;;;7.67;;
3022;SDS011;1521;53.584;9.938;2023-11-19T10:40:47;40.57;;;6.97;;
3022;SDS011;1521;53.584;9.938;2023-11-19T10:43:13;52.17;;;8.13;;
3022;SDS011;1521;53.584;9.938;2023-11-19T10:45:39;38.30;;;6.10;;
3022;SDS011;1521;53.584;9.938;2023-11-19T10:48:06;37.43;;;6.10;;
3022;SDS011;1521;53.584;9.938;2023-11-19T10:50:32;47.93;;;7.27;;
3022;SDS011;1521;53.584;9.938;2023-11-19T10:52:59;48.10;;;6.90;;
3022;SDS011;1521;53.584;9.938;2023-11-19T10:55:28;39.00;;;6.90;;
3022;SDS011;1521;53.584;9.938;2023-11-19T10:57:58;36.63;;;6.80;;
3022;SDS011;1521;53.584;9.938;2023-11-19T11:03:25;40.20;;;6.50;;
3022;SDS011;1521;53.584;9.938;2023-11-19T11:05:53;44.77;;;6.90;;
3022;SDS011;1521;53.584;9.938;2023-11-19T11:08:19;46.77;;;7.13;;
3022;SDS011;1521;53.584;9.938;2023-11-19T11:10:48;42.07;;;6.47;;
3022;SDS011;1521;53.584;9.938;2023-11-19T11:13:22;36.67;;;6.10;;
3022;SDS011;1521;53.584;9.938;2023-11-19T11:15:54;40.40;;;7.13;;
3022;SDS011;1521;53.584;9.938;2023-11-19T11:18:21;30.70;;;5.90;;
3022;SDS011;1521;53.584;9.938;2023-11-19T11:20:48;45.33;;;7.13;;
3022;SDS011;1521;53.584;9.938;2023-11-19T11:28:59;28.40;;;5.73;;
3022;SDS011;1521;53.584;9.938;2023-11-19T11:31:31;38.03;;;6.67;;
3022;SDS011;1521;53.584;9.938;2023-11-19T11:37:18;37.90;;;8.00;;
3022;SDS011;1521;53.584;9.938;2023-11-19T11:39:50;36.67;;;5.80;;
3022;SDS011;1521;53.584;9.938;2023-11-19T11:45:15;33.57;;;6.23;;
3022;SDS011;1521;53.584;9.938;2023-11-19T11:55:36;41.00;;;6.30;;
3022;SDS011;1521;53.584;9.938;2023-11-19T11:58:20;35.70;;;6.27;;
3022;SDS011;1521;53.584;9.938;2023-11-19T12:00:46;33.77;;;7.07;;
3022;SDS011;1521;53.584;9.938;2023-11-19T12:03:13;35.07;;;6.33;;
3022;SDS011;1521;53.584;9.938;2023-11-19T12:05:40;39.40;;;6.40;;
3022;SDS011;1521;53.584;9.938;2023-11-19T12:08:07;46.03;;;6.60;;
3022;SDS011;1521;53.584;9.938;2023-11-19T12:10:37;47.60;;;6.70;;
3022;SDS011;1521;53.584;9.938;2023-11-19T12:13:09;55.40;;;6.43;;
3022;SDS011;1521;53.584;9.938;2023-11-19T12:18:30;36.57;;;6.90;;
3022;SDS011;1521;53.584;9.938;2023-11-19T12:20:57;48.73;;;6.43;;
3022;SDS011;1521;53.584;9.938;2023-11-19T12:23:27;31.80;;;5.57;;
3022;SDS011;1521;53.584;9.938;2023-11-19T12:25:54;26.00;;;5.47;;
3022;SDS011;1521;53.584;9.938;2023-11-19T12:28:20;25.57;;;5.20;;
3022;SDS011;1521;53.584;9.938;2023-11-19T12:30:46;31.77;;;6.07;;
3022;SDS011;1521;53.584;9.938;2023-11-19T12:33:13;49.93;;;6.40;;
3022;SDS011;1521;53.584;9.938;2023-11-19T12:35:43;34.73;;;5.57;;
3022;SDS011;1521;53.584;9.938;2023-11-19T12:38:22;29.93;;;5.47;;
3022;SDS011;1521;53.584;9.938;2023-11-19T12:41:04;25.20;;;5.80;;
3022;SDS011;1521;53.584;9.938;2023-11-19T12:43:31;29.67;;;6.83;;
3022;SDS011;1521;53.584;9.938;2023-11-19T12:45:57;28.17;;;6.10;;
3022;SDS011;1521;53.584;9.938;2023-11-19T12:48:22;38.53;;;5.97;;
3022;SDS011;1521;53.584;9.938;2023-11-19T12:50:55;35.73;;;6.33;;
3022;SDS011;1521;53.584;9.938;2023-11-19T12:53:23;26.77;;;6.00;;
3022;SDS011;1521;53.584;9.938;2023-11-19T12:55:49;37.30;;;6.47;;
3022;SDS011;1521;53.584;9.938;2023-11-19T12:58:35;34.60;;;7.03;;
3022;SDS011;1521;53.584;9.938;2023-11-19T13:03:35;38.20;;;7.00;;
3022;SDS011;1521;53.584;9.938;2023-11-19T13:06:03;36.93;;;6.13;;
3022;SDS011;1521;53.584;9.938;2023-11-19T13:08:43;34.23;;;5.93;;
3022;SDS011;1521;53.584;9.938;2023-11-19T13:11:10;37.93;;;6.67;;
3022;SDS011;1521;53.584;9.938;2023-11-19T13:16:21;36.20;;;5.83;;
3022;SDS011;1521;53.584;9.938;2023-11-19T13:18:47;34.30;;;6.57;;
3022;SDS011;1521;53.584;9.938;2023-11-19T13:21:13;33.67;;;6.07;;
3022;SDS011;1521;53.584;9.938;2023-11-19T13:23:38;29.77;;;6.00;;
3022;SDS011;1521;53.584;9.938;2023-11-19T13:26:04;32.00;;;6.10;;
3022;SDS011;1521;53.584;9.938;2023-11-19T13:28:29;37.03;;;6.40;;
3022;SDS011;1521;53.584;9.938;2023-11-19T13:30:56;32.80;;;5.60;;
3022;SDS011;1521;53.584;9.938;2023-11-19T13:33:21;30.23;;;5.83;;
3022;SDS011;1521;53.584;9.938;2023-11-19T13:35:47;37.23;;;5.33;;
3022;SDS011;1521;53.584;9.938;2023-11-19T13:38:12;32.50;;;5.70;;
3022;SDS011;1521;53.584;9.938;2023-11-19T13:40:38;28.93;;;6.67;;
3022;SDS011;1521;53.584;9.938;2023-11-19T13:43:04;36.67;;;6.77;;
3022;SDS011;1521;53.584;9.938;2023-11-19T13:45:29;36.53;;;6.30;;
3022;SDS011;1521;53.584;9.938;2023-11-19T13:47:55;32.63;;;6.50;;
3022;SDS011;1521;53.584;9.938;2023-11-19T13:50:21;34.50;;;6.37;;
3022;SDS011;1521;53.584;9.938;2023-11-19T13:52:48;34.60;;;5.93;;
3022;SDS011;1521;53.584;9.938;2023-11-19T13:55:13;38.10;;;6.20;;
3022;SDS011;1521;53.584;9.938;2023-11-19T13:57:40;35.93;;;6.33;;
3022;SDS011;1521;53.584;9.938;2023-11-19T14:00:07;35.80;;;6.00;;
3022;SDS011;1521;53.584;9.938;2023-11-19T14:02:37;27.57;;;5.60;;
3022;SDS011;1521;53.584;9.938;2023-11-19T14:05:06;38.43;;;5.60;;
3022;SDS011;1521;53.584;9.938;2023-11-19T14:07:33;34.30;;;5.37;;
3022;SDS011;1521;53.584;9.938;2023-11-19T14:09:58;30.73;;;6.23;;
3022;SDS011;1521;53.584;9.938;2023-11-19T14:12:24;41.60;;;6.30;;
3022;SDS011;1521;53.584;9.938;2023-11-19T14:14:50;36.70;;;6.60;;
3022;SDS011;1521;53.584;9.938;2023-11-19T14:17:15;35.97;;;6.30;;
3022;SDS011;1521;53.584;9.938;2023-11-19T14:19:41;26.37;;;5.20;;
3022;SDS011;1521;53.584;9.938;2023-11-19T14:22:08;32.20;;;5.33;;
3022;SDS011;1521;53.584;9.938;2023-11-19T14:24:34;31.57;;;5.23;;
3022;SDS011;1521;53.584;9.938;2023-11-19T14:27:00;32.40;;;6.23;;
3022;SDS011;1521;53.584;9.938;2023-11-19T14:29:26;34.57;;;5.10;;
3022;SDS011;1521;53.584;9.938;2023-11-19T14:31:52;33.10;;;6.00;;
3022;SDS011;1521;53.584;9.938;2023-11-19T14:34:20;34.37;;;6.87;;
3022;SDS011;1521;53.584;9.938;2023-11-19T14:36:46;29.03;;;5.63;;
3022;SDS011;1521;53.584;9.938;2023-11-19T14:39:12;28.30;;;5.40;;
3022;SDS011;1521;53.584;9.938;2023-11-19T14:41:38;33.80;;;6.00;;
3022;SDS011;1521;53.584;9.938;2023-11-19T14:44:04;26.43;;;4.93;;
3022;SDS011;1521;53.584;9.938;2023-11-19T14:46:30;30.07;;;5.50;;
3022;SDS011;1521;53.584;9.938;2023-11-19T14:48:56;31.87;;;5.80;;
3022;SDS011;1521;53.584;9.938;2023-11-19T14:51:21;30.23;;;5.63;;
3022;SDS011;1521;53.584;9.938;2023-11-19T14:53:47;31.43;;;6.10;;
3022;SDS011;1521;53.584;9.938;2023-11-19T14:56:12;21.97;;;4.60;;
3022;SDS011;1521;53.584;9.938;2023-11-19T14:58:38;21.57;;;4.63;;
3022;SDS011;1521;53.584;9.938;2023-11-19T15:01:04;22.20;;;4.13;;
3022;SDS011;1521;53.584;9.938;2023-11-19T15:03:31;12.33;;;2.63;;
3022;SDS011;1521;53.584;9.938;2023-11-19T15:05:57;18.27;;;4.73;;
3022;SDS011;1521;53.584;9.938;2023-11-19T15:08:23;9.43;;;2.30;;
3022;SDS011;1521;53.584;9.938;2023-11-19T15:10:48;14.40;;;2.17;;
3022;SDS011;1521;53.584;9.938;2023-11-19T15:13:14;4.77;;;1.60;;
3022;SDS011;1521;53.584;9.938;2023-11-19T15:15:40;12.30;;;1.60;;
3022;SDS011;1521;53.584;9.938;2023-11-19T15:18:05;3.97;;;1.27;;
3022;SDS011;1521;53.584;9.938;2023-11-19T15:20:31;4.47;;;1.23;;
3022;SDS011;1521;53.584;9.938;2023-11-19T15:22:57;3.93;;;1.40;;
3022;SDS011;1521;53.584;9.938;2023-11-19T15:25:23;6.43;;;1.60;;
3022;SDS011;1521;53.584;9.938;2023-11-19T15:27:49;7.60;;;1.93;;
3022;SDS011;1521;53.584;9.938;2023-11-19T15:30:15;7.10;;;1.73;;
3022;SDS011;1521;53.584;9.938;2023-11-19T15:32:41;11.30;;;1.87;;
3022;SDS011;1521;53.584;9.938;2023-11-19T15:35:08;5.03;;;1.60;;